sensor_id;sensor_type;location;lat;lon;timestamp;pressure;altitude;pressure_sealevel;temperature;humidity
73341;BME280;61578;52.002;5.468;2023-05-08T00:00:08;102026.06;;;14.51;95.92
73341;BME280;61578;52.002;5.468;2023-05-08T00:00:39;102025.97;;;14.53;95.60
73341;BME280;61578;52.002;5.468;2023-05-08T00:01:11;102026.16;;;14.50;94.62
73341;BME280;61578;52.002;5.468;2023-05-08T00:01:42;102026.25;;;14.48;94.91
73341;BME280;61578;52.002;5.468;2023-05-08T00:02:12;102026.16;;;14.50;94.94
73341;BME280;61578;52.002;5.468;2023-05-08T00:02:43;102018.53;;;14.44;94.79
73341;BME280;61578;52.002;5.468;2023-05-08T00:03:15;102025.38;;;14.48;94.68
73341;BME280;61578;52.002;5.468;2023-05-08T00:03:45;102022.78;;;14.46;94.57
73341;BME280;61578;52.002;5.468;2023-05-08T00:04:16;102025.47;;;14.46;94.61
73341;BME280;61578;52.002;5.468;2023-05-08T00:04:49;102028.13;;;14.46;94.59
73341;BME280;61578;52.002;5.468;2023-05-08T00:05:20;102022.16;;;14.43;94.40
73341;BME280;61578;52.002;5.468;2023-05-08T00:05:51;102029.00;;;14.47;95.18
73341;BME280;61578;52.002;5.468;2023-05-08T00:06:24;102023.66;;;14.47;95.22
73341;BME280;61578;52.002;5.468;2023-05-08T00:06:56;102019.38;;;14.44;94.59
73341;BME280;61578;52.002;5.468;2023-05-08T00:07:27;102023.88;;;14.44;94.54
73341;BME280;61578;52.002;5.468;2023-05-08T00:07:58;102013.50;;;14.37;95.00
73341;BME280;61578;52.002;5.468;2023-05-08T00:08:32;102025.59;;;14.45;95.04
73341;BME280;61578;52.002;5.468;2023-05-08T00:09:02;102007.59;;;14.32;95.08
73341;BME280;61578;52.002;5.468;2023-05-08T00:09:33;102023.00;;;14.43;94.82
73341;BME280;61578;52.002;5.468;2023-05-08T00:10:05;102023.00;;;14.43;94.31
73341;BME280;61578;52.002;5.468;2023-05-08T00:10:38;102024.81;;;14.43;94.84
73341;BME280;61578;52.002;5.468;2023-05-08T00:11:08;102027.41;;;14.44;95.09
73341;BME280;61578;52.002;5.468;2023-05-08T00:11:42;102029.13;;;14.45;94.51
73341;BME280;61578;52.002;5.468;2023-05-08T00:12:13;102028.34;;;14.43;95.04
73341;BME280;61578;52.002;5.468;2023-05-08T00:12:46;102018.44;;;14.45;95.13
73341;BME280;61578;52.002;5.468;2023-05-08T00:13:17;102023.78;;;14.45;94.82
73341;BME280;61578;52.002;5.468;2023-05-08T00:13:50;102028.25;;;14.45;95.23
73341;BME280;61578;52.002;5.468;2023-05-08T00:14:21;102022.06;;;14.44;94.92
73341;BME280;61578;52.002;5.468;2023-05-08T00:14:51;102021.19;;;14.44;95.28
73341;BME280;61578;52.002;5.468;2023-05-08T00:15:25;102018.44;;;14.45;94.88
73341;BME280;61578;52.002;5.468;2023-05-08T00:15:55;102011.63;;;14.40;94.69
73341;BME280;61578;52.002;5.468;2023-05-08T00:16:26;102025.69;;;14.43;94.64
73341;BME280;61578;52.002;5.468;2023-05-08T00:16:57;102022.16;;;14.43;94.65
73341;BME280;61578;52.002;5.468;2023-05-08T00:17:27;102022.06;;;14.44;94.60
73341;BME280;61578;52.002;5.468;2023-05-08T00:17:58;102010.78;;;14.39;95.00
73341;BME280;61578;52.002;5.468;2023-05-08T00:18:29;102023.88;;;14.44;94.95
73341;BME280;61578;52.002;5.468;2023-05-08T00:19:00;102018.69;;;14.41;94.93
73341;BME280;61578;52.002;5.468;2023-05-08T00:19:30;102023.88;;;14.44;94.84
73341;BME280;61578;52.002;5.468;2023-05-08T00:20:01;102024.03;;;14.41;94.87
73341;BME280;61578;52.002;5.468;2023-05-08T00:20:32;102019.38;;;14.44;94.90
73341;BME280;61578;52.002;5.468;2023-05-08T00:21:04;102023.88;;;14.44;94.90
73341;BME280;61578;52.002;5.468;2023-05-08T00:21:35;102021.94;;;14.46;95.44
73341;BME280;61578;52.002;5.468;2023-05-08T00:22:06;102019.38;;;14.44;95.16
73341;BME280;61578;52.002;5.468;2023-05-08T00:22:37;102021.09;;;14.45;95.29
73341;BME280;61578;52.002;5.468;2023-05-08T00:23:08;102018.44;;;14.45;94.68
73341;BME280;61578;52.002;5.468;2023-05-08T00:23:38;102016.72;;;14.44;94.72
73341;BME280;61578;52.002;5.468;2023-05-08T00:24:09;102015.94;;;14.42;94.62
73341;BME280;61578;52.002;5.468;2023-05-08T00:24:43;102013.34;;;14.41;95.03
73341;BME280;61578;52.002;5.468;2023-05-08T00:25:14;102016.03;;;14.41;94.78
73341;BME280;61578;52.002;5.468;2023-05-08T00:25:44;102016.88;;;14.41;94.38
73341;BME280;61578;52.002;5.468;2023-05-08T00:26:15;102018.69;;;14.41;94.62
73341;BME280;61578;52.002;5.468;2023-05-08T00:26:47;102010.78;;;14.39;94.73
73341;BME280;61578;52.002;5.468;2023-05-08T00:27:18;102016.03;;;14.41;95.12
73341;BME280;61578;52.002;5.468;2023-05-08T00:27:48;102012.41;;;14.42;95.46
73341;BME280;61578;52.002;5.468;2023-05-08T00:28:20;102011.38;;;14.44;95.50
73341;BME280;61578;52.002;5.468;2023-05-08T00:28:53;102004.63;;;14.37;95.27
73341;BME280;61578;52.002;5.468;2023-05-08T00:29:24;102015.84;;;14.44;94.80
73341;BME280;61578;52.002;5.468;2023-05-08T00:29:55;102007.06;;;14.42;94.69
73341;BME280;61578;52.002;5.468;2023-05-08T00:30:28;102007.16;;;14.40;94.44
73341;BME280;61578;52.002;5.468;2023-05-08T00:30:59;101991.66;;;14.31;94.58
73341;BME280;61578;52.002;5.468;2023-05-08T00:31:31;101997.94;;;14.30;94.60
73341;BME280;61578;52.002;5.468;2023-05-08T00:32:02;101998.63;;;14.33;95.27
73341;BME280;61578;52.002;5.468;2023-05-08T00:32:32;102008.97;;;14.40;94.84
73341;BME280;61578;52.002;5.468;2023-05-08T00:33:03;102011.63;;;14.40;94.83
73341;BME280;61578;52.002;5.468;2023-05-08T00:33:34;102007.06;;;14.42;94.99
73341;BME280;61578;52.002;5.468;2023-05-08T00:34:05;102016.03;;;14.41;95.05
73341;BME280;61578;52.002;5.468;2023-05-08T00:34:35;102010.59;;;14.42;95.23
73341;BME280;61578;52.002;5.468;2023-05-08T00:35:06;102013.44;;;14.39;95.00
73341;BME280;61578;52.002;5.468;2023-05-08T00:35:37;102014.31;;;14.40;95.08
73341;BME280;61578;52.002;5.468;2023-05-08T00:36:10;102020.56;;;14.38;95.34
73341;BME280;61578;52.002;5.468;2023-05-08T00:36:41;102020.56;;;14.38;95.08
73341;BME280;61578;52.002;5.468;2023-05-08T00:37:12;102017.13;;;14.36;94.83
73341;BME280;61578;52.002;5.468;2023-05-08T00:37:43;102012.50;;;14.40;95.58
73341;BME280;61578;52.002;5.468;2023-05-08T00:38:14;102009.09;;;14.36;95.09
73341;BME280;61578;52.002;5.468;2023-05-08T00:38:45;102004.91;;;14.32;94.92
73341;BME280;61578;52.002;5.468;2023-05-08T00:39:15;102007.59;;;14.32;94.86
73341;BME280;61578;52.002;5.468;2023-05-08T00:39:46;102019.78;;;14.36;94.63
73341;BME280;61578;52.002;5.468;2023-05-08T00:40:17;102024.19;;;14.37;94.97
73341;BME280;61578;52.002;5.468;2023-05-08T00:40:48;102015.31;;;14.37;94.88
73341;BME280;61578;52.002;5.468;2023-05-08T00:41:18;102023.41;;;14.35;94.67
73341;BME280;61578;52.002;5.468;2023-05-08T00:41:49;102016.25;;;14.36;95.11
73341;BME280;61578;52.002;5.468;2023-05-08T00:42:20;102016.16;;;14.37;94.87
73341;BME280;61578;52.002;5.468;2023-05-08T00:42:51;102022.47;;;14.36;94.87
73341;BME280;61578;52.002;5.468;2023-05-08T00:43:22;102030.59;;;14.35;94.67
73341;BME280;61578;52.002;5.468;2023-05-08T00:43:57;102020.75;;;14.35;94.34
73341;BME280;61578;52.002;5.468;2023-05-08T00:44:28;102021.59;;;14.36;94.62
73341;BME280;61578;52.002;5.468;2023-05-08T00:44:59;102017.25;;;14.35;94.24
73341;BME280;61578;52.002;5.468;2023-05-08T00:45:36;102020.00;;;14.33;94.74
73341;BME280;61578;52.002;5.468;2023-05-08T00:46:09;102026.38;;;14.31;94.87
73341;BME280;61578;52.002;5.468;2023-05-08T00:46:41;102011.47;;;14.27;94.68
73341;BME280;61578;52.002;5.468;2023-05-08T00:47:14;102010.72;;;14.25;95.48
73341;BME280;61578;52.002;5.468;2023-05-08T00:47:45;102014.84;;;14.30;95.30
73341;BME280;61578;52.002;5.468;2023-05-08T00:48:16;102018.38;;;14.31;95.36
73341;BME280;61578;52.002;5.468;2023-05-08T00:48:48;102015.59;;;14.32;95.56
73341;BME280;61578;52.002;5.468;2023-05-08T00:49:22;102019.22;;;14.31;95.45
73341;BME280;61578;52.002;5.468;2023-05-08T00:49:53;102020.94;;;14.32;95.33
73341;BME280;61578;52.002;5.468;2023-05-08T00:50:25;102017.41;;;14.32;94.87
73341;BME280;61578;52.002;5.468;2023-05-08T00:50:57;102020.00;;;14.33;94.92
73341;BME280;61578;52.002;5.468;2023-05-08T00:51:30;102014.66;;;14.33;95.35
73341;BME280;61578;52.002;5.468;2023-05-08T00:52:04;102012.94;;;14.32;95.08
73341;BME280;61578;52.002;5.468;2023-05-08T00:52:39;102014.66;;;14.33;95.24
73341;BME280;61578;52.002;5.468;2023-05-08T00:53:11;102007.69;;;14.31;95.57
73341;BME280;61578;52.002;5.468;2023-05-08T00:53:43;102018.28;;;14.32;95.07
73341;BME280;61578;52.002;5.468;2023-05-08T00:54:15;102020.88;;;14.34;95.06
73341;BME280;61578;52.002;5.468;2023-05-08T00:54:48;101999.19;;;14.24;94.41
73341;BME280;61578;52.002;5.468;2023-05-08T00:55:19;102018.28;;;14.32;94.49
73341;BME280;61578;52.002;5.468;2023-05-08T00:55:51;102015.59;;;14.32;94.91
73341;BME280;61578;52.002;5.468;2023-05-08T00:56:24;102021.91;;;14.31;95.05
73341;BME280;61578;52.002;5.468;2023-05-08T00:56:59;102006.22;;;14.25;95.03
73341;BME280;61578;52.002;5.468;2023-05-08T00:57:33;102015.78;;;14.29;94.82
73341;BME280;61578;52.002;5.468;2023-05-08T00:58:05;102013.97;;;14.30;94.81
73341;BME280;61578;52.002;5.468;2023-05-08T00:58:37;102009.59;;;14.29;94.82
73341;BME280;61578;52.002;5.468;2023-05-08T00:59:15;102013.97;;;14.30;95.40
73341;BME280;61578;52.002;5.468;2023-05-08T00:59:48;102014.06;;;14.28;95.01
73341;BME280;61578;52.002;5.468;2023-05-08T01:00:21;102005.28;;;14.26;94.77
73341;BME280;61578;52.002;5.468;2023-05-08T01:00:54;102016.91;;;14.25;94.89
73341;BME280;61578;52.002;5.468;2023-05-08T01:01:27;102017.69;;;14.27;94.93
73341;BME280;61578;52.002;5.468;2023-05-08T01:02:00;102015.97;;;14.26;95.78
73341;BME280;61578;52.002;5.468;2023-05-08T01:02:31;102018.47;;;14.29;95.71
73341;BME280;61578;52.002;5.468;2023-05-08T01:03:04;102009.59;;;14.29;94.95
73341;BME280;61578;52.002;5.468;2023-05-08T01:03:36;102013.28;;;14.26;94.56
73341;BME280;61578;52.002;5.468;2023-05-08T01:04:07;102013.19;;;14.28;95.05
73341;BME280;61578;52.002;5.468;2023-05-08T01:04:41;102009.88;;;14.24;94.69
73341;BME280;61578;52.002;5.468;2023-05-08T01:05:13;102013.50;;;14.23;94.94
73341;BME280;61578;52.002;5.468;2023-05-08T01:05:44;102014.44;;;14.22;94.09
73341;BME280;61578;52.002;5.468;2023-05-08T01:06:15;102009.28;;;14.19;94.60
73341;BME280;61578;52.002;5.468;2023-05-08T01:06:46;102019.03;;;14.20;95.25
73341;BME280;61578;52.002;5.468;2023-05-08T01:07:17;102016.34;;;14.20;94.87
73341;BME280;61578;52.002;5.468;2023-05-08T01:07:49;102014.53;;;14.21;94.97
73341;BME280;61578;52.002;5.468;2023-05-08T01:08:20;102017.22;;;14.21;94.71
73341;BME280;61578;52.002;5.468;2023-05-08T01:08:51;102020.75;;;14.21;94.54
73341;BME280;61578;52.002;5.468;2023-05-08T01:09:22;102011.94;;;14.19;94.94
73341;BME280;61578;52.002;5.468;2023-05-08T01:09:53;102017.47;;;14.16;94.15
73341;BME280;61578;52.002;5.468;2023-05-08T01:10:33;102017.47;;;14.16;94.79
73341;BME280;61578;52.002;5.468;2023-05-08T01:11:46;102014.81;;;14.16;95.47
73341;BME280;61578;52.002;5.468;2023-05-08T01:13:45;102024.75;;;14.14;94.23
73341;BME280;61578;52.002;5.468;2023-05-08T01:14:24;102012.44;;;14.12;94.73
73341;BME280;61578;52.002;5.468;2023-05-08T01:15:25;102015.97;;;14.12;95.48
73341;BME280;61578;52.002;5.468;2023-05-08T01:16:14;102015.09;;;14.12;94.85
73341;BME280;61578;52.002;5.468;2023-05-08T01:16:59;102023.03;;;14.13;95.12
73341;BME280;61578;52.002;5.468;2023-05-08T01:18:49;102009.44;;;14.02;94.65
73341;BME280;61578;52.002;5.468;2023-05-08T01:21:45;102014.41;;;14.08;95.25
73341;BME280;61578;52.002;5.468;2023-05-08T01:22:37;102016.22;;;14.08;94.72
73341;BME280;61578;52.002;5.468;2023-05-08T01:32:13;102018.00;;;13.93;94.88
73341;BME280;61578;52.002;5.468;2023-05-08T01:32:55;102011.22;;;13.87;94.40
73341;BME280;61578;52.002;5.468;2023-05-08T01:33:49;102011.38;;;13.84;94.36
73341;BME280;61578;52.002;5.468;2023-05-08T01:35:52;102012.44;;;13.82;94.65
73341;BME280;61578;52.002;5.468;2023-05-08T01:36:50;102008.06;;;13.81;94.17
73341;BME280;61578;52.002;5.468;2023-05-08T01:38:54;102018.03;;;13.77;94.28
73341;BME280;61578;52.002;5.468;2023-05-08T01:40:03;102010.13;;;13.76;94.02
73341;BME280;61578;52.002;5.468;2023-05-08T01:40:50;102019.94;;;13.75;93.92
73341;BME280;61578;52.002;5.468;2023-05-08T01:41:25;102015.66;;;13.73;94.59
73341;BME280;61578;52.002;5.468;2023-05-08T01:44:20;102017.56;;;13.71;94.39
73341;BME280;61578;52.002;5.468;2023-05-08T01:44:58;102017.56;;;13.71;95.08
73341;BME280;61578;52.002;5.468;2023-05-08T01:45:38;102014.97;;;13.69;94.96
73341;BME280;61578;52.002;5.468;2023-05-08T01:46:15;102023.06;;;13.68;94.83
73341;BME280;61578;52.002;5.468;2023-05-08T01:46:57;102017.81;;;13.66;94.84
73341;BME280;61578;52.002;5.468;2023-05-08T01:47:36;102016.78;;;13.69;94.75
73341;BME280;61578;52.002;5.468;2023-05-08T01:48:10;102025.72;;;13.68;94.19
73341;BME280;61578;52.002;5.468;2023-05-08T01:48:51;102006.81;;;13.56;94.53
73341;BME280;61578;52.002;5.468;2023-05-08T01:49:39;102027.81;;;13.62;94.73
73341;BME280;61578;52.002;5.468;2023-05-08T01:50:23;102015.34;;;13.63;94.67
73341;BME280;61578;52.002;5.468;2023-05-08T01:51:04;102024.19;;;13.63;94.14
73341;BME280;61578;52.002;5.468;2023-05-08T01:51:45;102027.03;;;13.60;94.44
73341;BME280;61578;52.002;5.468;2023-05-08T01:52:34;102027.03;;;13.60;94.27
73341;BME280;61578;52.002;5.468;2023-05-08T01:53:21;102016.81;;;13.53;94.03
73341;BME280;61578;52.002;5.468;2023-05-08T01:53:58;102029.88;;;13.57;94.07
73341;BME280;61578;52.002;5.468;2023-05-08T01:54:47;102023.00;;;13.53;93.84
73341;BME280;61578;52.002;5.468;2023-05-08T01:55:29;102027.38;;;13.54;94.27
73341;BME280;61578;52.002;5.468;2023-05-08T01:56:08;102034.44;;;13.55;94.40
73341;BME280;61578;52.002;5.468;2023-05-08T01:56:45;102028.34;;;13.53;94.25
73341;BME280;61578;52.002;5.468;2023-05-08T01:57:21;102028.34;;;13.53;94.37
73341;BME280;61578;52.002;5.468;2023-05-08T01:57:57;102005.28;;;13.37;94.16
73341;BME280;61578;52.002;5.468;2023-05-08T01:58:34;102026.88;;;13.48;94.45
73341;BME280;61578;52.002;5.468;2023-05-08T01:59:10;102033.94;;;13.49;94.96
73341;BME280;61578;52.002;5.468;2023-05-08T01:59:45;102029.38;;;13.51;94.54
73341;BME280;61578;52.002;5.468;2023-05-08T02:00:21;102030.41;;;13.48;94.36
73341;BME280;61578;52.002;5.468;2023-05-08T02:00:57;102032.50;;;13.43;94.42
73341;BME280;61578;52.002;5.468;2023-05-08T02:01:33;102028.97;;;13.43;94.38
73341;BME280;61578;52.002;5.468;2023-05-08T02:02:05;102027.91;;;13.45;95.25
73341;BME280;61578;52.002;5.468;2023-05-08T02:02:40;102026.19;;;13.44;94.95
73341;BME280;61578;52.002;5.468;2023-05-08T02:03:13;102035.03;;;13.45;95.36
73341;BME280;61578;52.002;5.468;2023-05-08T02:03:47;102027.91;;;13.45;94.85
73341;BME280;61578;52.002;5.468;2023-05-08T02:04:21;102033.25;;;13.45;94.96
73341;BME280;61578;52.002;5.468;2023-05-08T02:04:55;102029.81;;;13.43;94.59
73341;BME280;61578;52.002;5.468;2023-05-08T02:05:30;102034.28;;;13.43;94.59
73341;BME280;61578;52.002;5.468;2023-05-08T02:06:05;102031.72;;;13.41;94.89
73341;BME280;61578;52.002;5.468;2023-05-08T02:06:39;102037.91;;;13.42;94.65
73341;BME280;61578;52.002;5.468;2023-05-08T02:07:11;102035.16;;;13.43;95.00
73341;BME280;61578;52.002;5.468;2023-05-08T02:07:45;102032.66;;;13.40;94.74
73341;BME280;61578;52.002;5.468;2023-05-08T02:08:21;102029.03;;;13.41;94.58
73341;BME280;61578;52.002;5.468;2023-05-08T02:08:59;102037.13;;;13.40;94.32
73341;BME280;61578;52.002;5.468;2023-05-08T02:09:31;102030.94;;;13.39;94.57
73341;BME280;61578;52.002;5.468;2023-05-08T02:10:04;102032.56;;;13.42;94.36
73341;BME280;61578;52.002;5.468;2023-05-08T02:10:38;102029.91;;;13.42;95.17
73341;BME280;61578;52.002;5.468;2023-05-08T02:11:11;102024.03;;;13.35;94.95
73341;BME280;61578;52.002;5.468;2023-05-08T02:11:46;102030.00;;;13.40;94.22
73341;BME280;61578;52.002;5.468;2023-05-08T02:12:20;102028.25;;;13.39;94.23
73341;BME280;61578;52.002;5.468;2023-05-08T02:12:54;102036.34;;;13.38;94.19
73341;BME280;61578;52.002;5.468;2023-05-08T02:13:29;102032.81;;;13.37;94.30
73341;BME280;61578;52.002;5.468;2023-05-08T02:14:02;102032.03;;;13.35;94.45
73341;BME280;61578;52.002;5.468;2023-05-08T02:14:36;102033.84;;;13.35;94.70
73341;BME280;61578;52.002;5.468;2023-05-08T02:15:15;102031.28;;;13.33;94.05
73341;BME280;61578;52.002;5.468;2023-05-08T02:15:49;102029.56;;;13.32;94.32
73341;BME280;61578;52.002;5.468;2023-05-08T02:16:24;102031.38;;;13.32;94.79
73341;BME280;61578;52.002;5.468;2023-05-08T02:16:59;102027.84;;;13.31;94.48
73341;BME280;61578;52.002;5.468;2023-05-08T02:17:36;102037.56;;;13.32;94.50
73341;BME280;61578;52.002;5.468;2023-05-08T02:18:10;102035.78;;;13.33;94.51
73341;BME280;61578;52.002;5.468;2023-05-08T02:18:50;102033.19;;;13.31;94.25
73341;BME280;61578;52.002;5.468;2023-05-08T02:19:25;102033.34;;;13.28;94.53
73341;BME280;61578;52.002;5.468;2023-05-08T02:20:01;102029.97;;;13.24;94.30
73341;BME280;61578;52.002;5.468;2023-05-08T02:20:35;102033.44;;;13.26;94.81
73341;BME280;61578;52.002;5.468;2023-05-08T02:21:12;102025.78;;;13.20;94.11
73341;BME280;61578;52.002;5.468;2023-05-08T02:21:47;102037.03;;;13.25;94.58
73341;BME280;61578;52.002;5.468;2023-05-08T02:22:23;102029.97;;;13.24;94.64
73341;BME280;61578;52.002;5.468;2023-05-08T02:22:56;102024.13;;;13.18;94.49
73341;BME280;61578;52.002;5.468;2023-05-08T02:23:28;102035.59;;;13.20;93.89
73341;BME280;61578;52.002;5.468;2023-05-08T02:24:03;102035.66;;;13.18;94.24
73341;BME280;61578;52.002;5.468;2023-05-08T02:24:37;102021.88;;;13.10;94.16
73341;BME280;61578;52.002;5.468;2023-05-08T02:25:11;102041.94;;;13.17;93.92
73341;BME280;61578;52.002;5.468;2023-05-08T02:25:46;102040.22;;;13.16;94.08
73341;BME280;61578;52.002;5.468;2023-05-08T02:26:19;102033.25;;;13.14;94.87
73341;BME280;61578;52.002;5.468;2023-05-08T02:26:53;102042.09;;;13.14;94.62
73341;BME280;61578;52.002;5.468;2023-05-08T02:27:29;102043.91;;;13.14;93.79
73341;BME280;61578;52.002;5.468;2023-05-08T02:28:05;102038.66;;;13.12;93.95
73341;BME280;61578;52.002;5.468;2023-05-08T02:28:40;102037.00;;;13.10;93.95
73341;BME280;61578;52.002;5.468;2023-05-08T02:29:13;102036.22;;;13.08;94.27
73341;BME280;61578;52.002;5.468;2023-05-08T02:29:50;102030.13;;;13.06;94.43
73341;BME280;61578;52.002;5.468;2023-05-08T02:30:24;102033.66;;;13.06;94.86
73341;BME280;61578;52.002;5.468;2023-05-08T02:30:57;102032.63;;;13.09;94.37
73341;BME280;61578;52.002;5.468;2023-05-08T02:31:30;102035.38;;;13.07;94.12
73341;BME280;61578;52.002;5.468;2023-05-08T02:32:02;102037.16;;;13.07;94.02
73341;BME280;61578;52.002;5.468;2023-05-08T02:32:37;102040.69;;;13.07;94.04
73341;BME280;61578;52.002;5.468;2023-05-08T02:33:14;102045.16;;;13.07;94.04
73341;BME280;61578;52.002;5.468;2023-05-08T02:33:49;102038.13;;;13.06;94.07
73341;BME280;61578;52.002;5.468;2023-05-08T02:34:22;102040.78;;;13.06;94.57
73341;BME280;61578;52.002;5.468;2023-05-08T02:34:56;102035.53;;;13.04;94.72
73341;BME280;61578;52.002;5.468;2023-05-08T02:35:30;102040.84;;;13.04;94.38
73341;BME280;61578;52.002;5.468;2023-05-08T02:36:03;102036.59;;;13.02;94.17
73341;BME280;61578;52.002;5.468;2023-05-08T02:36:36;102037.44;;;13.02;94.36
73341;BME280;61578;52.002;5.468;2023-05-08T02:37:10;102042.78;;;13.02;93.96
73341;BME280;61578;52.002;5.468;2023-05-08T02:37:45;102042.78;;;13.02;93.78
73341;BME280;61578;52.002;5.468;2023-05-08T02:38:22;102025.28;;;12.97;94.51
73341;BME280;61578;52.002;5.468;2023-05-08T02:38:58;102040.97;;;13.03;94.91
73341;BME280;61578;52.002;5.468;2023-05-08T02:39:34;102040.00;;;13.04;95.18
73341;BME280;61578;52.002;5.468;2023-05-08T02:40:08;102050.50;;;13.07;95.19
73341;BME280;61578;52.002;5.468;2023-05-08T02:40:49;102034.84;;;13.01;94.33
73341;BME280;61578;52.002;5.468;2023-05-08T02:41:29;102041.56;;;13.08;94.66
73341;BME280;61578;52.002;5.468;2023-05-08T02:42:02;102041.56;;;13.08;94.36
73341;BME280;61578;52.002;5.468;2023-05-08T02:42:34;102045.09;;;13.08;94.40
73341;BME280;61578;52.002;5.468;2023-05-08T02:43:08;102045.16;;;13.07;94.76
73341;BME280;61578;52.002;5.468;2023-05-08T02:43:39;102034.94;;;12.99;94.34
73341;BME280;61578;52.002;5.468;2023-05-08T02:44:11;102045.97;;;13.09;95.42
73341;BME280;61578;52.002;5.468;2023-05-08T02:44:42;102050.25;;;13.11;95.32
73341;BME280;61578;52.002;5.468;2023-05-08T02:45:13;102055.53;;;13.13;95.13
73341;BME280;61578;52.002;5.468;2023-05-08T02:47:04;102053.63;;;13.15;95.49
73341;BME280;61578;52.002;5.468;2023-05-08T02:48:08;102051.75;;;13.17;94.74
73341;BME280;61578;52.002;5.468;2023-05-08T02:48:55;102054.25;;;13.20;95.18
73341;BME280;61578;52.002;5.468;2023-05-08T02:49:44;102044.94;;;13.11;93.95
73341;BME280;61578;52.002;5.468;2023-05-08T02:50:27;102058.97;;;13.15;94.21
73341;BME280;61578;52.002;5.468;2023-05-08T02:53:14;102043.84;;;13.15;94.58
73341;BME280;61578;52.002;5.468;2023-05-08T02:54:22;102047.28;;;13.17;94.39
73341;BME280;61578;52.002;5.468;2023-05-08T02:55:28;102047.19;;;13.19;95.13
73341;BME280;61578;52.002;5.468;2023-05-08T02:56:26;102048.91;;;13.20;94.40
73341;BME280;61578;52.002;5.468;2023-05-08T02:57:31;102052.44;;;13.20;94.82
73341;BME280;61578;52.002;5.468;2023-05-08T02:58:28;102039.13;;;13.20;94.77
73341;BME280;61578;52.002;5.468;2023-05-08T02:59:16;102042.66;;;13.21;94.86
73341;BME280;61578;52.002;5.468;2023-05-08T02:59:59;102038.25;;;13.20;94.63
73341;BME280;61578;52.002;5.468;2023-05-08T03:00:45;102035.59;;;13.20;94.53
73341;BME280;61578;52.002;5.468;2023-05-08T03:01:28;102041.00;;;13.18;94.31
73341;BME280;61578;52.002;5.468;2023-05-08T03:02:44;102033.25;;;13.14;94.76
73341;BME280;61578;52.002;5.468;2023-05-08T03:03:26;102041.09;;;13.17;94.67
73341;BME280;61578;52.002;5.468;2023-05-08T03:04:08;102037.56;;;13.16;95.36
73341;BME280;61578;52.002;5.468;2023-05-08T03:04:55;102023.34;;;13.16;95.38
73341;BME280;61578;52.002;5.468;2023-05-08T03:05:34;102035.75;;;13.17;94.87
73341;BME280;61578;52.002;5.468;2023-05-08T03:06:17;102034.03;;;13.16;95.07
73341;BME280;61578;52.002;5.468;2023-05-08T03:06:53;102029.47;;;13.18;94.93
73341;BME280;61578;52.002;5.468;2023-05-08T03:07:29;102035.91;;;13.14;94.11
73341;BME280;61578;52.002;5.468;2023-05-08T03:08:15;102044.69;;;13.16;94.90
73341;BME280;61578;52.002;5.468;2023-05-08T03:08:51;102034.09;;;13.14;94.67
73341;BME280;61578;52.002;5.468;2023-05-08T03:09:46;102041.94;;;13.17;95.09
73341;BME280;61578;52.002;5.468;2023-05-08T03:10:27;102036.69;;;13.16;94.82
73341;BME280;61578;52.002;5.468;2023-05-08T03:11:25;102033.88;;;13.19;95.47
73341;BME280;61578;52.002;5.468;2023-05-08T03:12:13;102041.69;;;13.22;95.07
73341;BME280;61578;52.002;5.468;2023-05-08T03:12:49;102040.91;;;13.20;95.14
73341;BME280;61578;52.002;5.468;2023-05-08T03:13:26;102035.50;;;13.21;95.02
73341;BME280;61578;52.002;5.468;2023-05-08T03:14:02;102034.56;;;13.22;94.05
73341;BME280;61578;52.002;5.468;2023-05-08T03:14:53;102033.69;;;13.22;94.65
73341;BME280;61578;52.002;5.468;2023-05-08T03:15:56;102032.84;;;13.21;95.12
73341;BME280;61578;52.002;5.468;2023-05-08T03:16:34;102029.97;;;13.24;95.41
73341;BME280;61578;52.002;5.468;2023-05-08T03:17:15;102038.75;;;13.26;95.74
73341;BME280;61578;52.002;5.468;2023-05-08T03:17:52;102030.69;;;13.28;95.40
73341;BME280;61578;52.002;5.468;2023-05-08T03:18:35;102037.72;;;13.29;95.51
73341;BME280;61578;52.002;5.468;2023-05-08T03:19:29;102041.34;;;13.28;94.85
73341;BME280;61578;52.002;5.468;2023-05-08T03:20:07;102033.34;;;13.28;94.71
73341;BME280;61578;52.002;5.468;2023-05-08T03:20:44;102031.63;;;13.27;94.94
73341;BME280;61578;52.002;5.468;2023-05-08T03:21:19;102039.53;;;13.29;94.89
73341;BME280;61578;52.002;5.468;2023-05-08T03:21:55;102031.63;;;13.27;94.78
73341;BME280;61578;52.002;5.468;2023-05-08T03:22:34;102028.00;;;13.28;94.74
73341;BME280;61578;52.002;5.468;2023-05-08T03:23:10;102034.28;;;13.27;94.20
73341;BME280;61578;52.002;5.468;2023-05-08T03:23:48;102031.63;;;13.27;94.63
73341;BME280;61578;52.002;5.468;2023-05-08T03:24:23;102031.63;;;13.27;95.11
73341;BME280;61578;52.002;5.468;2023-05-08T03:25:00;102033.34;;;13.28;95.27
73341;BME280;61578;52.002;5.468;2023-05-08T03:25:36;102021.31;;;13.21;95.07
73341;BME280;61578;52.002;5.468;2023-05-08T03:26:16;102035.06;;;13.29;94.95
73341;BME280;61578;52.002;5.468;2023-05-08T03:26:51;102022.91;;;13.23;94.95
73341;BME280;61578;52.002;5.468;2023-05-08T03:27:24;102030.59;;;13.30;95.39
73341;BME280;61578;52.002;5.468;2023-05-08T03:28:02;102033.19;;;13.31;94.53
73341;BME280;61578;52.002;5.468;2023-05-08T03:28:35;102034.13;;;13.30;94.11
73341;BME280;61578;52.002;5.468;2023-05-08T03:29:09;102026.13;;;13.30;95.03
73341;BME280;61578;52.002;5.468;2023-05-08T03:29:43;102024.41;;;13.29;95.47
73341;BME280;61578;52.002;5.468;2023-05-08T03:30:16;102021.56;;;13.32;95.52
73341;BME280;61578;52.002;5.468;2023-05-08T03:30:50;102022.50;;;13.31;94.97
73341;BME280;61578;52.002;5.468;2023-05-08T03:31:23;102029.56;;;13.32;95.36